createdAt,value
2023-07-04T04:05:13.401Z,10.73
2023-07-04T04:08:15.998Z,11.20
2023-07-04T04:11:18.206Z,10.18
2023-07-04T04:14:20.606Z,10.73
2023-07-04T04:17:22.830Z,10.77
2023-07-04T04:20:26.251Z,10.73
2023-07-04T04:23:28.399Z,10.80
2023-07-04T04:26:39.108Z,10.57
2023-07-04T04:29:41.508Z,10.43
2023-07-04T04:32:46.121Z,10.48
2023-07-04T04:35:48.574Z,10.23
2023-07-04T04:38:51.020Z,10.20
2023-07-04T04:41:53.790Z,10.57
2023-07-04T04:44:56.216Z,9.57
2023-07-04T04:47:58.376Z,9.50
2023-07-04T04:51:11.810Z,10.43
2023-07-04T04:54:15.481Z,9.90
2023-07-04T04:57:18.203Z,9.80
2023-07-04T05:00:21.757Z,9.23
2023-07-04T05:03:24.686Z,10.30
2023-07-04T05:06:27.988Z,10.95
2023-07-04T05:09:30.499Z,10.15
2023-07-04T05:12:33.841Z,10.07
2023-07-04T05:15:36.299Z,9.82
2023-07-04T05:18:39.403Z,10.13
2023-07-04T05:21:42.605Z,9.98
2023-07-04T05:24:45.075Z,9.95
2023-07-04T05:27:47.629Z,9.82
2023-07-04T05:30:58.104Z,9.57
2023-07-04T05:34:00.912Z,10.48
2023-07-04T05:37:04.734Z,10.52
2023-07-04T05:40:09.499Z,10.13
2023-07-04T05:43:11.945Z,10.40
2023-07-04T05:46:17.948Z,10.13
2023-07-04T05:49:21.414Z,10.38
2023-07-04T05:52:25.148Z,10.88
2023-07-04T05:55:27.470Z,10.02
2023-07-04T05:58:30.043Z,10.77
2023-07-04T06:01:45.400Z,11.32
2023-07-04T06:04:48.115Z,10.30
2023-07-04T06:07:50.495Z,10.48
2023-07-04T06:11:06.355Z,9.90
2023-07-04T06:14:08.553Z,10.55
2023-07-04T06:17:11.005Z,10.07
2023-07-04T06:20:13.467Z,9.82
2023-07-04T06:23:16.052Z,9.65
2023-07-04T06:26:18.339Z,9.27
2023-07-04T06:29:20.783Z,8.52
2023-07-04T06:32:24.418Z,7.82
2023-07-04T06:35:26.968Z,7.68
2023-07-04T06:38:29.315Z,8.50
2023-07-04T06:41:31.919Z,8.95
2023-07-04T06:44:34.242Z,8.65
2023-07-04T06:47:36.730Z,9.60
2023-07-04T06:50:38.927Z,9.32
2023-07-04T06:53:42.549Z,9.63
2023-07-04T06:56:45.106Z,9.10
2023-07-04T06:59:47.636Z,9.43
2023-07-04T07:02:51.453Z,8.88
2023-07-04T07:05:54.149Z,9.15
2023-07-04T07:08:56.581Z,9.95
2023-07-04T07:11:58.980Z,9.38
2023-07-04T07:15:01.287Z,10.23
2023-07-04T07:18:03.869Z,10.05
2023-07-04T07:21:08.011Z,9.68
2023-07-04T07:24:10.506Z,10.02
2023-07-04T07:27:12.866Z,10.25
2023-07-04T07:30:15.864Z,9.68
2023-07-04T07:33:18.816Z,9.57
2023-07-04T07:36:28.397Z,9.48
2023-07-04T07:39:30.743Z,9.75
2023-07-04T07:42:33.892Z,10.55
2023-07-04T07:45:36.044Z,9.18
2023-07-04T07:48:38.990Z,8.57
2023-07-04T07:51:42.800Z,9.10
2023-07-04T07:54:45.403Z,9.10
2023-07-04T07:57:47.545Z,10.13
2023-07-04T08:00:50.218Z,9.98
2023-07-04T08:03:52.960Z,10.13
2023-07-04T08:06:56.263Z,10.23
2023-07-04T08:10:00.312Z,10.85
2023-07-04T08:13:02.464Z,11.18
2023-07-04T08:16:05.606Z,10.82
2023-07-04T08:19:08.145Z,9.75
2023-07-04T08:22:10.699Z,10.82
2023-07-04T08:25:13.174Z,10.60
2023-07-04T08:28:16.720Z,10.27
2023-07-04T08:31:20.319Z,11.32
2023-07-04T08:34:24.156Z,10.55
2023-07-04T08:37:26.501Z,11.00
2023-07-04T08:40:29.158Z,11.30
2023-07-04T08:43:37.749Z,12.48
2023-07-04T08:46:46.783Z,11.02
2023-07-04T08:49:55.103Z,12.32
2023-07-04T08:53:11.466Z,12.02
2023-07-04T08:56:32.723Z,12.57
2023-07-04T08:59:44.099Z,11.18
2023-07-04T09:03:06.944Z,12.05
2023-07-04T09:06:44.958Z,12.63
2023-07-04T09:10:00.255Z,12.90
2023-07-04T09:13:06.487Z,12.57
2023-07-04T09:16:21.748Z,12.37
2023-07-04T09:19:24.457Z,12.52
2023-07-04T09:22:26.686Z,12.98
2023-07-04T09:25:29.177Z,14.00
2023-07-04T09:28:36.031Z,15.45
2023-07-04T09:31:42.105Z,14.10
2023-07-04T09:34:51.689Z,13.95
2023-07-04T09:37:57.476Z,14.25
2023-07-04T09:41:00.745Z,15.43
2023-07-04T09:44:17.998Z,14.68
2023-07-04T09:47:29.846Z,14.87
2023-07-04T09:50:38.790Z,14.02
2023-07-04T09:53:41.007Z,13.20
2023-07-04T09:56:44.368Z,13.30
2023-07-04T09:59:46.556Z,12.75
2023-07-04T10:02:53.677Z,12.40
2023-07-04T10:05:57.016Z,10.68
2023-07-04T10:08:59.627Z,12.35
2023-07-04T10:12:11.944Z,11.38
2023-07-04T10:15:28.031Z,11.05
2023-07-04T10:18:34.551Z,9.95
2023-07-04T10:21:52.811Z,9.52
2023-07-04T10:24:56.962Z,10.90
2023-07-04T10:28:15.374Z,10.98
2023-07-04T10:31:22.764Z,10.13
2023-07-04T10:34:27.862Z,10.68
2023-07-04T10:37:35.594Z,8.32
2023-07-04T10:40:40.419Z,9.65
2023-07-04T10:43:47.345Z,8.48
2023-07-04T10:47:01.529Z,9.30
2023-07-04T10:50:10.775Z,10.13
2023-07-04T10:53:14.305Z,8.80
2023-07-04T10:56:25.936Z,9.52
2023-07-04T10:59:33.130Z,8.20
2023-07-04T11:02:59.018Z,7.18
2023-07-04T11:06:06.285Z,7.68
2023-07-04T11:09:15.111Z,8.80
2023-07-04T11:12:20.816Z,9.85
2023-07-04T11:15:34.992Z,9.45
2023-07-04T11:18:44.240Z,8.60
2023-07-04T11:22:11.586Z,10.75
2023-07-04T11:25:34.218Z,11.30
2023-07-04T11:28:37.159Z,11.63
2023-07-04T11:32:03.186Z,10.82
2023-07-04T11:35:11.731Z,11.32
2023-07-04T11:38:17.690Z,11.85
2023-07-04T11:41:30.587Z,12.05
2023-07-04T11:44:47.936Z,13.27
2023-07-04T11:47:54.952Z,10.73
2023-07-04T11:51:12.059Z,12.10
2023-07-04T11:54:14.965Z,11.02
2023-07-04T11:57:21.961Z,11.95
2023-07-04T12:00:31.357Z,11.60
2023-07-04T12:03:37.997Z,10.13
2023-07-04T12:06:49.734Z,9.85
2023-07-04T12:10:11.061Z,9.90
2023-07-04T12:13:20.337Z,9.32
2023-07-04T12:16:25.322Z,9.75
2023-07-04T12:19:27.796Z,11.87
2023-07-04T12:22:30.959Z,10.98
2023-07-04T12:25:45.280Z,10.50
2023-07-04T12:28:48.358Z,9.75
2023-07-04T12:32:05.779Z,10.50
2023-07-04T12:35:13.352Z,11.73
2023-07-04T12:38:16.780Z,9.63
2023-07-04T12:41:25.960Z,10.45
2023-07-04T12:44:40.367Z,10.52
2023-07-04T12:49:26.895Z,11.15
2023-07-04T12:51:14.447Z,11.43
2023-07-04T12:54:17.995Z,11.15
2023-07-04T12:57:30.123Z,11.73
2023-07-04T13:00:38.428Z,11.88
2023-07-04T13:03:44.584Z,12.00
2023-07-04T13:06:50.996Z,10.85
2023-07-04T13:09:56.852Z,11.90
2023-07-04T13:12:59.975Z,10.75
2023-07-04T13:16:12.792Z,11.73
2023-07-04T13:19:18.769Z,12.50
2023-07-04T13:22:30.092Z,12.77
2023-07-04T13:25:50.085Z,13.93
2023-07-04T13:35:33.624Z,12.35
2023-07-04T13:41:42.415Z,13.27
2023-07-04T13:47:51.569Z,12.85
2023-07-04T13:50:56.543Z,13.13
2023-07-04T13:53:59.480Z,12.23
2023-07-04T13:57:02.016Z,12.73
2023-07-04T14:00:06.178Z,12.45
2023-07-04T14:06:15.362Z,12.02
2023-07-04T14:09:17.868Z,12.45
2023-07-04T14:12:20.095Z,11.32
2023-07-04T14:16:36.823Z,10.02
2023-07-04T14:21:51.762Z,8.82
2023-07-04T14:24:54.251Z,9.65
2023-07-04T14:27:56.783Z,10.95
2023-07-04T14:30:59.182Z,9.75
2023-07-04T14:34:02.445Z,9.25
2023-07-04T14:37:04.926Z,8.88
2023-07-04T14:42:14.708Z,8.48
2023-07-04T14:43:29.968Z,9.25
2023-07-04T14:46:32.383Z,8.18
2023-07-04T14:49:36.056Z,8.02
